createdAt,value
2022-12-25T00:03:58.734Z,3.30
2022-12-25T00:06:26.045Z,3.50
2022-12-25T00:08:52.452Z,3.47
2022-12-25T00:11:19.812Z,3.05
2022-12-25T00:13:46.525Z,3.20
2022-12-25T00:16:15.364Z,3.50
2022-12-25T00:18:41.758Z,3.60
2022-12-25T00:21:08.245Z,3.17
2022-12-25T00:23:35.106Z,3.42
2022-12-25T00:26:03.983Z,3.33
2022-12-25T00:28:30.331Z,3.30
2022-12-25T00:30:56.756Z,3.45
2022-12-25T00:33:25.055Z,3.53
2022-12-25T00:35:58.565Z,3.50
2022-12-25T00:40:52.175Z,3.65
2022-12-25T00:43:18.585Z,3.20
2022-12-25T00:45:53.124Z,3.20
2022-12-25T00:48:19.542Z,3.60
2022-12-25T00:50:45.892Z,3.45
2022-12-25T00:53:12.215Z,3.28
2022-12-25T00:55:38.546Z,3.22
2022-12-25T00:58:04.914Z,3.30
2022-12-25T01:00:31.295Z,3.42
2022-12-25T01:02:57.756Z,3.58
2022-12-25T01:05:24.179Z,3.47
2022-12-25T01:07:50.529Z,3.50
2022-12-25T01:10:23.109Z,3.42
2022-12-25T01:12:50.555Z,3.33
2022-12-25T01:15:16.969Z,3.33
2022-12-25T01:17:43.834Z,3.67
2022-12-25T01:20:11.347Z,3.25
2022-12-25T01:25:04.913Z,3.10
2022-12-25T01:27:31.895Z,3.13
2022-12-25T01:29:58.356Z,3.53
2022-12-25T01:32:24.881Z,3.20
2022-12-25T01:34:55.871Z,3.40
2022-12-25T01:37:23.821Z,3.00
2022-12-25T01:39:50.246Z,3.20
2022-12-25T01:42:17.524Z,3.55
2022-12-25T01:44:46.827Z,3.30
2022-12-25T01:47:13.804Z,3.30
2022-12-25T01:49:41.875Z,3.15
2022-12-25T01:52:10.666Z,3.22
2022-12-25T01:54:41.912Z,3.45
2022-12-25T01:57:13.754Z,3.40
2022-12-25T01:59:40.276Z,3.25
2022-12-25T02:02:06.710Z,2.75
2022-12-25T02:04:39.335Z,3.13
2022-12-25T02:07:10.613Z,3.45
2022-12-25T02:09:37.334Z,3.15
2022-12-25T02:12:04.216Z,3.03
2022-12-25T02:14:32.359Z,3.30
2022-12-25T02:17:28.381Z,3.70
2022-12-25T02:20:02.508Z,3.13
2022-12-25T02:22:39.291Z,3.05
2022-12-25T02:25:41.170Z,3.35
2022-12-25T02:28:26.125Z,3.30
2022-12-25T02:30:54.922Z,2.70
2022-12-25T02:34:05.774Z,2.97
2022-12-25T02:36:47.204Z,3.20
2022-12-25T02:39:37.051Z,3.25
2022-12-25T02:42:05.133Z,3.50
2022-12-25T02:44:51.300Z,3.28
2022-12-25T02:47:36.102Z,3.05
2022-12-25T02:50:22.046Z,3.50
2022-12-25T02:53:08.479Z,3.05
2022-12-25T02:55:56.127Z,2.90
2022-12-25T02:58:42.010Z,3.20
2022-12-25T03:01:32.270Z,3.13
2022-12-25T03:04:18.910Z,3.20
2022-12-25T03:07:05.602Z,3.03
2022-12-25T03:09:54.164Z,2.70
2022-12-25T03:12:23.606Z,2.90
2022-12-25T03:15:09.323Z,3.00
2022-12-25T03:17:35.948Z,2.95
2022-12-25T03:20:21.287Z,3.40
2022-12-25T03:23:06.690Z,3.25
2022-12-25T03:25:51.741Z,3.13
2022-12-25T03:28:18.127Z,2.83
2022-12-25T03:31:09.306Z,2.95
2022-12-25T03:34:13.243Z,3.00
2022-12-25T03:36:46.001Z,2.83
2022-12-25T03:39:38.403Z,3.10
2022-12-25T03:42:24.782Z,2.80
2022-12-25T03:45:37.711Z,2.70
2022-12-25T03:48:24.012Z,3.22
2022-12-25T03:51:11.844Z,3.00
2022-12-25T03:54:14.409Z,2.83
2022-12-25T03:57:00.435Z,2.55
2022-12-25T03:59:45.154Z,2.75
2022-12-25T04:02:30.212Z,2.75
2022-12-25T04:05:15.242Z,3.00
2022-12-25T04:08:00.403Z,2.97
2022-12-25T04:10:45.374Z,2.75
2022-12-25T04:13:30.312Z,2.92
2022-12-25T04:16:15.178Z,3.08
2022-12-25T04:18:59.996Z,2.83
2022-12-25T04:21:45.303Z,2.80
2022-12-25T04:24:30.190Z,3.03
2022-12-25T04:27:15.083Z,2.70
2022-12-25T04:30:00.030Z,3.10
2022-12-25T04:32:44.893Z,2.63
2022-12-25T04:35:29.795Z,2.60
2022-12-25T04:37:56.449Z,2.40
2022-12-25T04:40:23.007Z,2.60
2022-12-25T04:42:52.797Z,2.60
2022-12-25T04:45:19.261Z,2.58
2022-12-25T04:47:45.655Z,2.60
2022-12-25T04:50:12.005Z,2.65
2022-12-25T04:52:39.206Z,2.85
2022-12-25T04:55:06.277Z,2.65
2022-12-25T04:57:32.828Z,2.63
2022-12-25T04:59:59.175Z,2.70
2022-12-25T05:02:25.682Z,2.50
2022-12-25T05:04:52.187Z,2.50
2022-12-25T05:07:18.593Z,2.35
2022-12-25T05:09:44.933Z,2.42
2022-12-25T05:12:11.311Z,2.65
2022-12-25T05:14:37.731Z,2.40
2022-12-25T05:17:04.080Z,2.35
2022-12-25T05:19:30.424Z,2.58
2022-12-25T05:21:56.740Z,2.47
2022-12-25T05:24:25.546Z,3.00
2022-12-25T05:26:51.890Z,2.70
2022-12-25T05:29:18.232Z,2.40
2022-12-25T05:31:44.594Z,2.35
2022-12-25T05:34:10.987Z,2.90
2022-12-25T05:36:38.531Z,2.70
2022-12-25T05:39:04.877Z,2.47
2022-12-25T05:41:34.563Z,2.63
2022-12-25T05:44:01.540Z,2.42
2022-12-25T05:46:27.977Z,2.70
2022-12-25T05:48:54.391Z,2.63
2022-12-25T05:51:20.769Z,2.70
2022-12-25T05:53:47.136Z,2.80
2022-12-25T05:56:13.502Z,2.63
2022-12-25T05:58:40.180Z,2.47
2022-12-25T06:01:10.928Z,2.15
2022-12-25T06:03:37.334Z,2.55
2022-12-25T06:06:03.751Z,2.42
2022-12-25T06:08:30.141Z,2.97
2022-12-25T06:10:56.503Z,2.58
2022-12-25T06:13:22.873Z,2.40
2022-12-25T06:15:49.208Z,2.45
2022-12-25T06:18:15.515Z,2.30
2022-12-25T06:20:41.869Z,2.28
2022-12-25T06:23:08.278Z,2.67
2022-12-25T06:25:34.629Z,2.17
2022-12-25T06:28:00.951Z,2.38
2022-12-25T06:30:27.319Z,2.30
2022-12-25T06:32:53.671Z,2.40
2022-12-25T06:35:20.039Z,2.25
2022-12-25T06:37:46.447Z,2.13
2022-12-25T06:40:13.181Z,2.20
2022-12-25T06:42:39.671Z,2.42
2022-12-25T06:45:06.517Z,2.50
2022-12-25T06:47:32.867Z,2.40
2022-12-25T06:49:59.218Z,2.22
2022-12-25T06:52:25.581Z,2.45
2022-12-25T06:54:52.138Z,2.30
2022-12-25T06:57:18.981Z,2.20
2022-12-25T06:59:48.515Z,2.00
2022-12-25T07:02:21.589Z,2.10
2022-12-25T07:04:48.146Z,2.20
2022-12-25T07:07:14.723Z,2.00
2022-12-25T07:09:42.399Z,1.98
2022-12-25T07:12:19.551Z,2.00
2022-12-25T07:14:48.783Z,1.92
2022-12-25T07:17:18.472Z,2.10
2022-12-25T07:19:46.273Z,1.88
2022-12-25T07:22:13.393Z,2.00
2022-12-25T07:24:39.787Z,2.38
2022-12-25T07:27:06.386Z,1.92
2022-12-25T07:29:32.785Z,2.20
2022-12-25T07:31:59.223Z,2.20
2022-12-25T07:34:25.851Z,2.20
2022-12-25T07:36:52.245Z,1.90
2022-12-25T07:39:18.674Z,2.20
2022-12-25T07:41:45.129Z,2.05
2022-12-25T07:44:14.712Z,2.13
2022-12-25T07:46:41.252Z,2.15
2022-12-25T07:49:07.667Z,1.98
2022-12-25T07:51:34.034Z,2.20
2022-12-25T07:54:00.414Z,2.30
2022-12-25T07:56:26.805Z,2.10
2022-12-25T07:58:53.119Z,1.88
2022-12-25T08:01:21.313Z,2.50
2022-12-25T08:03:57.934Z,1.77
2022-12-25T08:06:26.876Z,2.00
2022-12-25T08:08:53.293Z,2.10
2022-12-25T08:11:19.712Z,2.00
2022-12-25T08:13:46.071Z,1.90
2022-12-25T08:16:12.586Z,1.73
2022-12-25T08:18:39.567Z,2.38
2022-12-25T08:21:07.296Z,1.83
2022-12-25T08:23:34.895Z,2.30
2022-12-25T08:26:04.939Z,1.90
2022-12-25T08:28:33.067Z,1.98
2022-12-25T08:30:59.483Z,2.10
2022-12-25T08:33:25.874Z,1.98
2022-12-25T08:35:52.198Z,1.90
2022-12-25T08:38:18.637Z,2.00
2022-12-25T08:40:44.977Z,1.90
2022-12-25T08:43:11.316Z,2.00
2022-12-25T08:45:37.675Z,1.70
2022-12-25T08:48:04.043Z,2.00
2022-12-25T08:50:30.529Z,1.90
2022-12-25T08:52:56.857Z,1.92
2022-12-25T08:55:23.311Z,1.70
2022-12-25T08:57:52.019Z,2.10
2022-12-25T09:00:18.602Z,1.50
2022-12-25T09:02:45.040Z,1.50
2022-12-25T09:05:11.587Z,1.67
2022-12-25T09:07:37.916Z,1.63
2022-12-25T09:10:04.466Z,1.50
2022-12-25T09:12:30.872Z,1.70
2022-12-25T09:14:57.307Z,1.70
2022-12-25T09:17:23.657Z,1.50
2022-12-25T09:19:50.025Z,1.55
2022-12-25T09:22:16.395Z,1.60
2022-12-25T09:24:43.663Z,1.30
2022-12-25T09:27:10.009Z,1.50
2022-12-25T09:29:36.395Z,1.40
2022-12-25T09:32:03.125Z,1.27
2022-12-25T09:34:29.528Z,1.48
2022-12-25T09:36:55.876Z,1.40
2022-12-25T09:39:23.259Z,1.60
2022-12-25T09:41:52.597Z,1.60
2022-12-25T09:44:21.278Z,1.52
2022-12-25T09:46:50.683Z,1.60
2022-12-25T09:49:32.894Z,1.40
2022-12-25T09:52:02.450Z,1.65
2022-12-25T09:54:36.655Z,1.48
2022-12-25T09:57:03.441Z,1.77
2022-12-25T09:59:29.859Z,1.60
2022-12-25T10:02:19.395Z,1.50
2022-12-25T10:05:06.426Z,1.52
2022-12-25T10:07:51.675Z,1.33
2022-12-25T10:10:37.119Z,1.40
2022-12-25T10:13:06.512Z,1.50
2022-12-25T10:15:54.491Z,1.30
2022-12-25T10:18:38.782Z,1.52
2022-12-25T10:21:12.660Z,1.60
2022-12-25T10:23:51.143Z,1.50
2022-12-25T10:26:19.799Z,1.40
2022-12-25T10:28:47.406Z,1.33
2022-12-25T10:31:24.294Z,1.55
2022-12-25T10:33:51.595Z,1.40
2022-12-25T10:36:19.158Z,1.30
2022-12-25T10:38:47.014Z,1.40
2022-12-25T10:41:13.356Z,1.25
2022-12-25T10:43:48.939Z,1.38
2022-12-25T10:46:15.729Z,1.50
2022-12-25T10:48:55.909Z,1.30
2022-12-25T10:51:40.490Z,1.50
2022-12-25T10:54:27.686Z,1.45
2022-12-25T10:56:56.770Z,1.60
2022-12-25T10:59:24.035Z,1.23
2022-12-25T11:01:55.015Z,1.30
2022-12-25T11:04:24.660Z,1.30
2022-12-25T11:07:06.178Z,1.65
2022-12-25T11:09:33.229Z,1.50
2022-12-25T11:11:59.929Z,1.50
2022-12-25T11:14:27.997Z,1.50
2022-12-25T11:16:54.838Z,1.60
2022-12-25T11:19:23.988Z,1.60
2022-12-25T11:21:52.074Z,1.38
2022-12-25T11:24:19.658Z,1.63
2022-12-25T11:29:23.459Z,1.55
2022-12-25T11:31:50.735Z,1.40
2022-12-25T11:34:55.501Z,1.50
2022-12-25T11:37:27.917Z,1.40
2022-12-25T11:39:54.271Z,1.40
2022-12-25T11:42:24.026Z,1.40
2022-12-25T11:44:53.239Z,1.50
2022-12-25T11:47:40.930Z,1.50
2022-12-25T11:50:14.980Z,1.48
2022-12-25T11:52:43.938Z,1.63
2022-12-25T11:55:22.131Z,1.70
2022-12-25T11:57:51.500Z,1.50
2022-12-25T12:00:18.335Z,1.58
2022-12-25T12:02:47.629Z,1.50
2022-12-25T12:05:14.056Z,1.80
2022-12-25T12:07:50.220Z,1.50
2022-12-25T12:10:21.635Z,1.50
2022-12-25T12:13:02.508Z,1.50
2022-12-25T12:15:32.067Z,1.50
2022-12-25T12:18:08.324Z,1.50
2022-12-25T12:20:35.629Z,1.60
2022-12-25T12:23:03.806Z,1.50
2022-12-25T12:25:31.012Z,2.00
2022-12-25T12:28:04.496Z,1.63
2022-12-25T12:30:35.498Z,1.70
2022-12-25T12:33:02.942Z,1.73
2022-12-25T12:35:33.617Z,2.17
2022-12-25T12:38:05.172Z,1.40
2022-12-25T12:40:39.322Z,1.40
2022-12-25T12:43:07.150Z,1.45
2022-12-25T12:45:35.520Z,1.50
2022-12-25T12:48:02.458Z,1.40
2022-12-25T12:50:30.813Z,1.60
2022-12-25T12:52:57.516Z,1.70
2022-12-25T12:55:31.412Z,1.40
2022-12-25T12:58:05.108Z,1.63
2022-12-25T13:00:40.385Z,1.63
2022-12-25T13:03:09.660Z,1.40
2022-12-25T13:05:42.623Z,1.60
2022-12-25T13:08:16.868Z,1.55
2022-12-25T13:10:50.592Z,1.60
2022-12-25T13:13:28.710Z,1.63
2022-12-25T13:15:57.517Z,1.52
2022-12-25T13:18:24.007Z,1.45
2022-12-25T13:20:59.282Z,1.48
2022-12-25T13:23:25.703Z,1.40
2022-12-25T13:25:53.167Z,1.67
2022-12-25T13:30:47.072Z,1.45
2022-12-25T13:33:16.259Z,1.50
2022-12-25T13:35:43.583Z,1.80
2022-12-25T13:38:19.460Z,1.60
2022-12-25T13:41:11.055Z,1.58
2022-12-25T13:43:41.015Z,1.52
2022-12-25T13:46:07.469Z,1.60
2022-12-25T13:48:33.900Z,1.67
2022-12-25T13:51:01.587Z,1.88
2022-12-25T13:53:28.127Z,1.58
2022-12-25T13:55:55.894Z,1.90
2022-12-25T13:58:27.337Z,1.88
2022-12-25T14:00:54.854Z,1.60
2022-12-25T14:05:55.173Z,1.58
2022-12-25T14:08:23.160Z,1.70
2022-12-25T14:10:51.024Z,1.70
2022-12-25T14:13:19.636Z,1.75
2022-12-25T14:15:47.984Z,1.92
2022-12-25T14:18:15.052Z,1.70
2022-12-25T14:20:42.484Z,1.80
2022-12-25T14:25:42.812Z,1.98
2022-12-25T14:28:17.708Z,1.90
2022-12-25T14:30:44.215Z,1.95
2022-12-25T14:33:14.717Z,1.77
2022-12-25T14:35:41.308Z,1.77
2022-12-25T14:38:13.935Z,1.80
2022-12-25T14:40:43.249Z,2.00
2022-12-25T14:43:23.564Z,1.88
2022-12-25T14:45:57.591Z,1.95
2022-12-25T14:48:28.539Z,2.10
2022-12-25T14:50:54.873Z,2.58
2022-12-25T14:53:22.532Z,2.50
2022-12-25T14:55:50.851Z,2.20
2022-12-25T14:58:21.971Z,2.38
2022-12-25T15:00:58.234Z,2.05
2022-12-25T15:03:27.646Z,2.50
2022-12-25T15:05:58.008Z,2.05
2022-12-25T15:08:24.792Z,2.10
2022-12-25T15:11:01.733Z,2.00
2022-12-25T15:13:29.869Z,2.28
2022-12-25T15:15:59.094Z,1.98
2022-12-25T15:18:27.534Z,2.20
2022-12-25T15:20:54.807Z,2.00
2022-12-25T15:23:21.791Z,1.98
2022-12-25T15:25:48.518Z,2.10
2022-12-25T15:28:14.933Z,1.90
2022-12-25T15:30:41.362Z,1.90
2022-12-25T15:33:10.555Z,2.10
2022-12-25T15:35:38.939Z,1.92
2022-12-25T15:38:05.484Z,1.92
2022-12-25T15:40:31.925Z,2.13
2022-12-25T15:42:58.295Z,2.00
2022-12-25T15:45:26.026Z,1.90
2022-12-25T15:47:53.234Z,1.70
2022-12-25T15:50:20.258Z,2.28
2022-12-25T15:52:47.205Z,2.10
2022-12-25T15:55:13.922Z,2.10
2022-12-25T15:57:41.334Z,2.00
2022-12-25T16:02:43.061Z,1.80
2022-12-25T16:05:10.630Z,2.08
2022-12-25T16:07:37.580Z,2.10
2022-12-25T16:10:05.493Z,2.08
2022-12-25T16:12:31.890Z,2.30
2022-12-25T16:14:58.287Z,2.42
2022-12-25T16:17:24.635Z,2.15
2022-12-25T16:19:51.045Z,2.22
2022-12-25T16:22:21.867Z,2.25
2022-12-25T16:24:48.874Z,2.20
2022-12-25T16:27:15.291Z,2.50
2022-12-25T16:29:42.278Z,2.58
2022-12-25T16:32:10.067Z,2.72
2022-12-25T16:34:36.528Z,3.30
2022-12-25T16:37:03.139Z,3.05
2022-12-25T16:39:29.506Z,3.10
2022-12-25T16:41:55.884Z,3.25
2022-12-25T16:44:22.304Z,3.60
2022-12-25T16:46:48.658Z,3.60
2022-12-25T16:49:15.023Z,3.65
2022-12-25T16:51:41.386Z,3.35
2022-12-25T16:54:08.368Z,3.17
2022-12-25T16:56:36.410Z,3.22
2022-12-25T16:59:02.828Z,3.15
2022-12-25T17:01:29.648Z,2.80
2022-12-25T17:03:58.148Z,2.67
2022-12-25T17:06:26.814Z,3.00
2022-12-25T17:08:55.278Z,2.97
2022-12-25T17:11:27.068Z,3.20
2022-12-25T17:13:53.835Z,4.10
2022-12-25T17:16:22.736Z,3.80
2022-12-25T17:18:52.658Z,3.88
2022-12-25T17:21:19.082Z,3.78
2022-12-25T17:23:45.461Z,4.20
2022-12-25T17:26:11.861Z,4.30
2022-12-25T17:28:38.545Z,4.10
2022-12-25T17:31:06.556Z,4.32
2022-12-25T17:33:35.360Z,4.47
2022-12-25T17:36:04.037Z,4.28
2022-12-25T17:38:31.858Z,4.03
2022-12-25T17:40:59.681Z,4.40
2022-12-25T17:43:26.284Z,4.20
2022-12-25T17:45:52.935Z,4.10
2022-12-25T17:48:19.610Z,4.53
2022-12-25T17:50:46.069Z,4.22
2022-12-25T17:53:12.572Z,4.20
2022-12-25T17:55:41.056Z,4.00
2022-12-25T17:58:08.031Z,3.97
2022-12-25T18:00:34.556Z,3.95
2022-12-25T18:03:05.790Z,4.35
2022-12-25T18:05:37.164Z,4.07
2022-12-25T18:08:05.238Z,4.60
2022-12-25T18:10:38.670Z,4.65
2022-12-25T18:13:05.053Z,4.40
2022-12-25T18:15:31.786Z,4.60
2022-12-25T18:17:58.145Z,4.90
2022-12-25T18:20:24.602Z,4.82
2022-12-25T18:22:50.926Z,4.50
2022-12-25T18:25:17.281Z,4.85
2022-12-25T18:27:43.633Z,4.53
2022-12-25T18:30:10.189Z,4.65
2022-12-25T18:32:36.532Z,4.63
2022-12-25T18:35:03.179Z,4.50
2022-12-25T18:37:34.387Z,4.93
2022-12-25T18:40:04.832Z,5.22
2022-12-25T18:42:40.318Z,4.80
2022-12-25T18:45:08.307Z,5.05
2022-12-25T18:47:34.957Z,4.90
2022-12-25T18:50:01.319Z,4.88
2022-12-25T18:52:49.173Z,4.75
2022-12-25T18:55:14.211Z,4.70
2022-12-25T18:57:40.884Z,5.28
2022-12-25T19:00:07.566Z,4.68
2022-12-25T19:02:34.022Z,4.90
2022-12-25T19:05:00.697Z,4.75
2022-12-25T19:07:27.128Z,4.80
2022-12-25T19:09:53.911Z,4.78
2022-12-25T19:12:20.331Z,4.63
2022-12-25T19:14:47.969Z,5.13
2022-12-25T19:17:15.011Z,4.68
2022-12-25T19:19:41.367Z,5.72
2022-12-25T19:22:07.757Z,5.13
2022-12-25T19:24:34.708Z,5.20
2022-12-25T19:27:01.135Z,5.05
2022-12-25T19:29:27.465Z,5.32
2022-12-25T19:31:53.825Z,5.35
2022-12-25T19:34:20.681Z,5.20
2022-12-25T19:36:47.051Z,4.80
2022-12-25T19:39:13.692Z,5.22
2022-12-25T19:41:40.095Z,5.20
2022-12-25T19:44:06.673Z,5.15
2022-12-25T19:46:36.905Z,5.10
2022-12-25T19:49:07.581Z,5.60
2022-12-25T19:51:36.419Z,5.45
2022-12-25T19:54:03.485Z,5.18
2022-12-25T19:56:30.244Z,5.32
2022-12-25T19:58:57.282Z,5.95
2022-12-25T20:01:24.755Z,5.22
2022-12-25T20:03:51.867Z,5.25
2022-12-25T20:06:21.796Z,6.10
2022-12-25T20:08:49.467Z,5.40
2022-12-25T20:11:16.794Z,5.70
2022-12-25T20:13:43.441Z,5.35
2022-12-25T20:16:10.147Z,5.10
2022-12-25T20:18:39.163Z,6.13
2022-12-25T20:21:07.699Z,4.95
2022-12-25T20:23:34.077Z,5.30
2022-12-25T20:26:01.340Z,5.07
2022-12-25T20:28:28.460Z,4.90
2022-12-25T20:30:55.487Z,4.88
2022-12-25T20:33:22.064Z,4.93
2022-12-25T20:35:48.724Z,5.75
2022-12-25T20:38:15.422Z,5.30
2022-12-25T20:41:24.351Z,4.82
2022-12-25T20:43:28.239Z,4.82
2022-12-25T20:45:54.769Z,4.72
2022-12-25T20:48:21.351Z,4.70
2022-12-25T20:50:49.359Z,4.88
2022-12-25T20:53:16.150Z,4.90
2022-12-25T20:55:46.230Z,5.63
2022-12-25T20:58:13.719Z,5.00
2022-12-25T21:03:06.711Z,4.75
2022-12-25T21:05:33.239Z,4.82
2022-12-25T21:07:59.572Z,4.82
2022-12-25T21:10:25.924Z,4.68
2022-12-25T21:12:52.259Z,5.40
2022-12-25T21:15:19.000Z,5.20
2022-12-25T21:17:45.388Z,4.53
2022-12-25T21:20:11.834Z,4.70
2022-12-25T21:22:38.224Z,4.78
2022-12-25T21:25:04.735Z,4.90
2022-12-25T21:27:31.120Z,5.07
2022-12-25T21:29:57.535Z,4.78
2022-12-25T21:32:42.719Z,4.80
2022-12-25T21:35:09.360Z,4.80
2022-12-25T21:37:35.757Z,4.72
2022-12-25T21:40:02.160Z,4.85
2022-12-25T21:42:28.540Z,4.38
2022-12-25T21:44:54.927Z,4.28
2022-12-25T21:47:21.298Z,4.22
2022-12-25T21:50:06.466Z,4.95
2022-12-25T21:52:34.902Z,4.40
2022-12-25T21:55:01.223Z,4.10
2022-12-25T21:57:27.548Z,4.57
2022-12-25T21:59:53.890Z,4.55
2022-12-25T22:02:20.521Z,4.50
2022-12-25T22:04:46.983Z,4.30
2022-12-25T22:07:20.070Z,3.95
2022-12-25T22:09:51.168Z,4.30
2022-12-25T22:12:37.275Z,4.30
2022-12-25T22:15:09.400Z,4.43
2022-12-25T22:17:58.619Z,4.20
2022-12-25T22:20:26.717Z,4.03
2022-12-25T22:22:53.299Z,3.97
2022-12-25T22:25:20.217Z,4.30
2022-12-25T22:27:47.426Z,4.45
2022-12-25T22:30:15.097Z,4.13
2022-12-25T22:32:41.611Z,4.38
2022-12-25T22:35:08.354Z,3.83
2022-12-25T22:37:35.958Z,3.95
2022-12-25T22:40:03.989Z,4.07
2022-12-25T22:42:30.542Z,3.60
2022-12-25T22:44:56.959Z,4.00
2022-12-25T22:47:23.798Z,3.90
2022-12-25T22:49:50.164Z,3.40
2022-12-25T22:52:16.548Z,3.40
2022-12-25T22:54:42.897Z,3.45
2022-12-25T22:57:09.260Z,3.50
2022-12-25T22:59:35.634Z,3.30
2022-12-25T23:02:02.283Z,3.40
2022-12-25T23:04:29.096Z,3.40
2022-12-25T23:06:55.568Z,3.33
2022-12-25T23:09:27.337Z,3.10
2022-12-25T23:11:55.322Z,3.58
2022-12-25T23:14:39.759Z,3.03
2022-12-25T23:17:07.678Z,2.92
2022-12-25T23:19:52.430Z,3.10
2022-12-25T23:22:37.260Z,2.85
2022-12-25T23:25:22.185Z,3.30
2022-12-25T23:27:48.539Z,3.30
2022-12-25T23:30:15.987Z,3.28
2022-12-25T23:35:09.502Z,3.55
2022-12-25T23:37:35.837Z,3.40
2022-12-25T23:40:02.297Z,3.72
2022-12-25T23:42:28.765Z,4.18
2022-12-25T23:44:55.135Z,4.10
2022-12-25T23:47:21.563Z,3.70
2022-12-25T23:49:47.924Z,3.35
2022-12-25T23:52:14.348Z,3.70
2022-12-25T23:54:40.731Z,3.47
2022-12-25T23:57:07.105Z,3.72
2022-12-25T23:59:33.515Z,3.53
